sensor_id;sensor_type;location;lat;lon;timestamp;pressure;altitude;pressure_sealevel;temperature;humidity
65376;BME280;51976;47.332;9.404;2023-11-19T00:00:04;92857.97;;;7.51;100.00
65376;BME280;51976;47.332;9.404;2023-11-19T00:02:32;92868.44;;;7.57;100.00
65376;BME280;51976;47.332;9.404;2023-11-19T00:04:57;92854.25;;;7.62;100.00
65376;BME280;51976;47.332;9.404;2023-11-19T00:07:23;92859.09;;;7.65;100.00
65376;BME280;51976;47.332;9.404;2023-11-19T00:09:48;92859.34;;;7.68;100.00
65376;BME280;51976;47.332;9.404;2023-11-19T00:12:14;92860.72;;;7.66;100.00
65376;BME280;51976;47.332;9.404;2023-11-19T00:14:39;92867.66;;;7.62;100.00
65376;BME280;51976;47.332;9.404;2023-11-19T00:17:06;92860.97;;;7.64;100.00
65376;BME280;51976;47.332;9.404;2023-11-19T00:19:31;92861.25;;;7.73;100.00
65376;BME280;51976;47.332;9.404;2023-11-19T00:21:57;92870.69;;;7.86;100.00
65376;BME280;51976;47.332;9.404;2023-11-19T00:24:22;92860.75;;;7.86;100.00
65376;BME280;51976;47.332;9.404;2023-11-19T00:26:47;92857.28;;;7.91;100.00
65376;BME280;51976;47.332;9.404;2023-11-19T00:29:13;92852.97;;;7.95;100.00
65376;BME280;51976;47.332;9.404;2023-11-19T00:31:39;92849.50;;;7.99;100.00
65376;BME280;51976;47.332;9.404;2023-11-19T00:34:04;92844.66;;;8.01;100.00
65376;BME280;51976;47.332;9.404;2023-11-19T00:36:31;92842.78;;;7.97;100.00
65376;BME280;51976;47.332;9.404;2023-11-19T00:38:56;92841.72;;;7.98;100.00
65376;BME280;51976;47.332;9.404;2023-11-19T00:41:22;92826.13;;;7.95;100.00
65376;BME280;51976;47.332;9.404;2023-11-19T00:43:47;92820.75;;;7.95;100.00
65376;BME280;51976;47.332;9.404;2023-11-19T00:46:14;92827.22;;;7.99;100.00
65376;BME280;51976;47.332;9.404;2023-11-19T00:48:40;92823.19;;;8.01;100.00
65376;BME280;51976;47.332;9.404;2023-11-19T00:51:05;92815.41;;;8.05;100.00
65376;BME280;51976;47.332;9.404;2023-11-19T00:53:31;92819.19;;;8.09;100.00
65376;BME280;51976;47.332;9.404;2023-11-19T00:56:00;92813.28;;;8.17;100.00
65376;BME280;51976;47.332;9.404;2023-11-19T00:58:25;92828.56;;;8.22;100.00
65376;BME280;51976;47.332;9.404;2023-11-19T01:00:51;92824.00;;;8.22;100.00
65376;BME280;51976;47.332;9.404;2023-11-19T01:03:16;92831.28;;;8.32;100.00
65376;BME280;51976;47.332;9.404;2023-11-19T01:05:42;92826.75;;;8.37;100.00
65376;BME280;51976;47.332;9.404;2023-11-19T01:08:08;92819.75;;;8.52;100.00
65376;BME280;51976;47.332;9.404;2023-11-19T01:10:36;92810.56;;;8.83;100.00
65376;BME280;51976;47.332;9.404;2023-11-19T01:13:02;92804.63;;;8.96;100.00
65376;BME280;51976;47.332;9.404;2023-11-19T01:15:31;92813.19;;;9.08;100.00
65376;BME280;51976;47.332;9.404;2023-11-19T01:17:56;92814.25;;;9.12;100.00
65376;BME280;51976;47.332;9.404;2023-11-19T01:20:22;92818.25;;;9.25;98.51
65376;BME280;51976;47.332;9.404;2023-11-19T01:22:47;92806.63;;;9.35;96.90
65376;BME280;51976;47.332;9.404;2023-11-19T01:25:13;92817.38;;;9.40;95.53
65376;BME280;51976;47.332;9.404;2023-11-19T01:27:39;92806.06;;;9.43;94.67
65376;BME280;51976;47.332;9.404;2023-11-19T01:30:04;92833.50;;;9.45;93.90
65376;BME280;51976;47.332;9.404;2023-11-19T01:32:31;92812.50;;;9.52;93.09
65376;BME280;51976;47.332;9.404;2023-11-19T01:34:57;92837.25;;;9.54;92.20
65376;BME280;51976;47.332;9.404;2023-11-19T01:37:23;92838.34;;;9.53;92.07
65376;BME280;51976;47.332;9.404;2023-11-19T01:39:48;92839.94;;;9.54;91.49
65376;BME280;51976;47.332;9.404;2023-11-19T01:42:14;92824.25;;;9.66;90.56
65376;BME280;51976;47.332;9.404;2023-11-19T01:44:39;92817.22;;;9.75;89.10
65376;BME280;51976;47.332;9.404;2023-11-19T01:47:04;92807.44;;;9.90;87.63
65376;BME280;51976;47.332;9.404;2023-11-19T01:49:31;92801.25;;;9.89;86.74
65376;BME280;51976;47.332;9.404;2023-11-19T01:51:57;92803.19;;;9.83;86.89
65376;BME280;51976;47.332;9.404;2023-11-19T01:54:24;92823.66;;;9.84;87.05
65376;BME280;51976;47.332;9.404;2023-11-19T01:56:49;92820.09;;;9.89;86.42
65376;BME280;51976;47.332;9.404;2023-11-19T01:59:15;92809.06;;;9.85;86.40
65376;BME280;51976;47.332;9.404;2023-11-19T02:01:41;92809.88;;;9.86;86.32
65376;BME280;51976;47.332;9.404;2023-11-19T02:04:08;92820.91;;;9.90;86.18
65376;BME280;51976;47.332;9.404;2023-11-19T02:06:34;92810.41;;;9.88;85.93
65376;BME280;51976;47.332;9.404;2023-11-19T02:09:02;92806.34;;;9.96;85.33
65376;BME280;51976;47.332;9.404;2023-11-19T02:11:33;92805.25;;;9.97;85.04
65376;BME280;51976;47.332;9.404;2023-11-19T02:13:58;92795.03;;;9.94;85.13
65376;BME280;51976;47.332;9.404;2023-11-19T02:16:24;92782.91;;;9.96;84.60
65376;BME280;51976;47.332;9.404;2023-11-19T02:18:49;92794.72;;;10.00;84.06
65376;BME280;51976;47.332;9.404;2023-11-19T02:21:14;92790.13;;;10.06;83.91
65376;BME280;51976;47.332;9.404;2023-11-19T02:23:40;92775.31;;;10.03;83.64
65376;BME280;51976;47.332;9.404;2023-11-19T02:26:25;92772.84;;;10.12;83.27
65376;BME280;51976;47.332;9.404;2023-11-19T02:28:53;92781.41;;;10.19;82.67
65376;BME280;51976;47.332;9.404;2023-11-19T02:31:18;92784.13;;;10.14;82.88
65376;BME280;51976;47.332;9.404;2023-11-19T02:33:44;92774.47;;;10.08;83.20
65376;BME280;51976;47.332;9.404;2023-11-19T02:36:10;92759.97;;;10.04;83.37
65376;BME280;51976;47.332;9.404;2023-11-19T02:38:35;92742.16;;;10.08;82.60
65376;BME280;51976;47.332;9.404;2023-11-19T02:41:03;92738.59;;;10.12;82.48
65376;BME280;51976;47.332;9.404;2023-11-19T02:43:34;92734.53;;;10.15;82.20
65376;BME280;51976;47.332;9.404;2023-11-19T02:46:03;92731.84;;;10.15;82.01
65376;BME280;51976;47.332;9.404;2023-11-19T02:48:35;92722.16;;;10.14;82.36
65376;BME280;51976;47.332;9.404;2023-11-19T02:51:01;92720.38;;;10.04;82.68
65376;BME280;51976;47.332;9.404;2023-11-19T02:53:29;92727.09;;;10.07;82.86
65376;BME280;51976;47.332;9.404;2023-11-19T02:55:54;92725.94;;;10.13;82.42
65376;BME280;51976;47.332;9.404;2023-11-19T02:58:27;92708.41;;;10.15;81.29
65376;BME280;51976;47.332;9.404;2023-11-19T03:00:54;92707.03;;;10.23;80.88
65376;BME280;51976;47.332;9.404;2023-11-19T03:03:24;92718.56;;;10.29;80.27
65376;BME280;51976;47.332;9.404;2023-11-19T03:05:53;92696.50;;;10.27;80.18
65376;BME280;51976;47.332;9.404;2023-11-19T03:08:19;92678.69;;;10.31;79.27
65376;BME280;51976;47.332;9.404;2023-11-19T03:10:44;92671.00;;;10.43;77.99
65376;BME280;51976;47.332;9.404;2023-11-19T03:13:12;92667.59;;;10.61;76.00
65376;BME280;51976;47.332;9.404;2023-11-19T03:15:39;92674.31;;;10.64;75.70
65376;BME280;51976;47.332;9.404;2023-11-19T03:18:05;92698.28;;;10.65;75.57
65376;BME280;51976;47.332;9.404;2023-11-19T03:20:30;92677.53;;;10.66;75.32
65376;BME280;51976;47.332;9.404;2023-11-19T03:22:56;92669.81;;;10.78;73.83
65376;BME280;51976;47.332;9.404;2023-11-19T03:25:25;92688.19;;;10.76;74.41
65376;BME280;51976;47.332;9.404;2023-11-19T03:27:52;92697.94;;;10.72;74.98
65376;BME280;51976;47.332;9.404;2023-11-19T03:30:18;92722.47;;;10.70;74.61
65376;BME280;51976;47.332;9.404;2023-11-19T03:32:46;92742.56;;;10.83;74.42
65376;BME280;51976;47.332;9.404;2023-11-19T03:35:11;92712.97;;;10.78;74.84
65376;BME280;51976;47.332;9.404;2023-11-19T03:37:37;92727.13;;;10.65;76.30
65376;BME280;51976;47.332;9.404;2023-11-19T03:40:03;92750.44;;;10.50;77.78
65376;BME280;51976;47.332;9.404;2023-11-19T03:42:29;92746.81;;;10.36;79.63
65376;BME280;51976;47.332;9.404;2023-11-19T03:44:58;92742.81;;;10.29;80.33
65376;BME280;51976;47.332;9.404;2023-11-19T03:47:23;92732.59;;;10.26;80.83
65376;BME280;51976;47.332;9.404;2023-11-19T03:49:49;92746.13;;;10.21;80.64
65376;BME280;51976;47.332;9.404;2023-11-19T03:52:15;92747.44;;;10.23;80.69
65376;BME280;51976;47.332;9.404;2023-11-19T03:54:41;92753.91;;;10.17;81.00
65376;BME280;51976;47.332;9.404;2023-11-19T03:57:06;92749.91;;;10.14;81.15
65376;BME280;51976;47.332;9.404;2023-11-19T03:59:31;92753.75;;;10.08;81.60
65376;BME280;51976;47.332;9.404;2023-11-19T04:01:58;92760.78;;;10.04;81.85
65376;BME280;51976;47.332;9.404;2023-11-19T04:04:26;92754.56;;;10.04;82.06
65376;BME280;51976;47.332;9.404;2023-11-19T04:06:51;92755.69;;;9.98;82.53
65376;BME280;51976;47.332;9.404;2023-11-19T04:09:17;92760.56;;;9.96;82.71
65376;BME280;51976;47.332;9.404;2023-11-19T04:11:42;92759.22;;;9.93;82.74
65376;BME280;51976;47.332;9.404;2023-11-19T04:14:07;92770.78;;;9.94;82.61
65376;BME280;51976;47.332;9.404;2023-11-19T04:16:33;92775.66;;;9.92;82.57
65376;BME280;51976;47.332;9.404;2023-11-19T04:18:58;92777.00;;;9.89;82.74
65376;BME280;51976;47.332;9.404;2023-11-19T04:21:23;92777.56;;;9.86;83.03
65376;BME280;51976;47.332;9.404;2023-11-19T04:23:49;92779.47;;;9.85;83.00
65376;BME280;51976;47.332;9.404;2023-11-19T04:26:14;92769.84;;;9.74;83.20
65376;BME280;51976;47.332;9.404;2023-11-19T04:28:41;92790.84;;;9.77;83.64
65376;BME280;51976;47.332;9.404;2023-11-19T04:31:06;92794.88;;;9.75;84.02
65376;BME280;51976;47.332;9.404;2023-11-19T04:33:31;92778.75;;;9.70;84.58
65376;BME280;51976;47.332;9.404;2023-11-19T04:35:57;92795.72;;;9.65;85.07
65376;BME280;51976;47.332;9.404;2023-11-19T04:38:22;92794.69;;;9.61;85.21
65376;BME280;51976;47.332;9.404;2023-11-19T04:40:47;92798.44;;;9.60;85.80
65376;BME280;51976;47.332;9.404;2023-11-19T04:43:13;92811.16;;;9.55;86.37
65376;BME280;51976;47.332;9.404;2023-11-19T04:45:38;92805.50;;;9.51;86.46
65376;BME280;51976;47.332;9.404;2023-11-19T04:48:05;92813.59;;;9.51;86.80
65376;BME280;51976;47.332;9.404;2023-11-19T04:50:30;92816.28;;;9.51;86.90
65376;BME280;51976;47.332;9.404;2023-11-19T04:52:56;92799.88;;;9.47;87.31
65376;BME280;51976;47.332;9.404;2023-11-19T04:55:21;92777.81;;;9.45;87.41
65376;BME280;51976;47.332;9.404;2023-11-19T04:57:47;92767.59;;;9.42;87.56
65376;BME280;51976;47.332;9.404;2023-11-19T05:00:13;92779.94;;;9.48;87.20
65376;BME280;51976;47.332;9.404;2023-11-19T05:02:38;92787.75;;;9.50;86.72
65376;BME280;51976;47.332;9.404;2023-11-19T05:05:04;92791.25;;;9.50;87.10
65376;BME280;51976;47.332;9.404;2023-11-19T05:07:30;92796.66;;;9.45;87.82
65376;BME280;51976;47.332;9.404;2023-11-19T05:09:55;92809.03;;;9.41;88.31
65376;BME280;51976;47.332;9.404;2023-11-19T05:12:21;92813.63;;;9.41;88.19
65376;BME280;51976;47.332;9.404;2023-11-19T05:14:48;92812.00;;;9.40;88.51
65376;BME280;51976;47.332;9.404;2023-11-19T05:17:16;92803.94;;;9.40;88.72
65376;BME280;51976;47.332;9.404;2023-11-19T05:19:43;92800.72;;;9.38;88.83
65376;BME280;51976;47.332;9.404;2023-11-19T05:22:08;92794.78;;;9.41;88.39
65376;BME280;51976;47.332;9.404;2023-11-19T05:24:34;92807.16;;;9.42;87.85
65376;BME280;51976;47.332;9.404;2023-11-19T05:27:01;92789.66;;;9.44;87.23
65376;BME280;51976;47.332;9.404;2023-11-19T05:29:26;92793.44;;;9.43;87.30
65376;BME280;51976;47.332;9.404;2023-11-19T05:31:52;92805.28;;;9.37;87.57
65376;BME280;51976;47.332;9.404;2023-11-19T05:34:17;92814.16;;;9.38;87.95
65376;BME280;51976;47.332;9.404;2023-11-19T05:36:43;92819.81;;;9.36;88.03
65376;BME280;51976;47.332;9.404;2023-11-19T05:39:08;92801.25;;;9.35;87.26
65376;BME280;51976;47.332;9.404;2023-11-19T05:41:34;92822.22;;;9.38;86.84
65376;BME280;51976;47.332;9.404;2023-11-19T05:43:59;92817.41;;;9.35;87.05
65376;BME280;51976;47.332;9.404;2023-11-19T05:46:24;92817.41;;;9.35;87.13
65376;BME280;51976;47.332;9.404;2023-11-19T05:48:52;92828.16;;;9.35;87.39
65376;BME280;51976;47.332;9.404;2023-11-19T05:51:18;92819.03;;;9.31;87.41
65376;BME280;51976;47.332;9.404;2023-11-19T05:53:43;92827.91;;;9.31;87.24
65376;BME280;51976;47.332;9.404;2023-11-19T05:56:10;92824.94;;;9.33;86.81
65376;BME280;51976;47.332;9.404;2023-11-19T05:58:36;92830.84;;;9.35;86.03
65376;BME280;51976;47.332;9.404;2023-11-19T06:01:02;92820.09;;;9.35;86.17
65376;BME280;51976;47.332;9.404;2023-11-19T06:03:28;92833.81;;;9.33;86.33
65376;BME280;51976;47.332;9.404;2023-11-19T06:05:54;92819.00;;;9.36;86.24
65376;BME280;51976;47.332;9.404;2023-11-19T06:08:19;92828.16;;;9.35;86.01
65376;BME280;51976;47.332;9.404;2023-11-19T06:10:46;92825.47;;;9.40;85.31
65376;BME280;51976;47.332;9.404;2023-11-19T06:13:15;92824.38;;;9.41;85.14
65376;BME280;51976;47.332;9.404;2023-11-19T06:15:43;92834.59;;;9.39;85.23
65376;BME280;51976;47.332;9.404;2023-11-19T06:18:09;92833.81;;;9.38;85.37
65376;BME280;51976;47.332;9.404;2023-11-19T06:20:36;92838.38;;;9.38;84.99
65376;BME280;51976;47.332;9.404;2023-11-19T06:23:02;92849.94;;;9.38;85.45
65376;BME280;51976;47.332;9.404;2023-11-19T06:25:27;92845.91;;;9.36;85.57
65376;BME280;51976;47.332;9.404;2023-11-19T06:27:53;92854.25;;;9.34;85.79
65376;BME280;51976;47.332;9.404;2023-11-19T06:30:19;92832.19;;;9.32;85.64
65376;BME280;51976;47.332;9.404;2023-11-19T06:32:44;92819.81;;;9.36;85.36
65376;BME280;51976;47.332;9.404;2023-11-19T06:35:10;92842.94;;;9.37;85.16
65376;BME280;51976;47.332;9.404;2023-11-19T06:37:38;92842.69;;;9.39;84.65
65376;BME280;51976;47.332;9.404;2023-11-19T06:40:04;92829.78;;;9.36;84.76
65376;BME280;51976;47.332;9.404;2023-11-19T06:42:30;92838.13;;;9.34;85.02
65376;BME280;51976;47.332;9.404;2023-11-19T06:44:56;92838.16;;;9.29;85.69
65376;BME280;51976;47.332;9.404;2023-11-19T06:47:25;92826.06;;;9.16;85.75
65376;BME280;51976;47.332;9.404;2023-11-19T06:49:50;92836.56;;;9.23;85.74
65376;BME280;51976;47.332;9.404;2023-11-19T06:52:16;92835.22;;;9.21;85.76
65376;BME280;51976;47.332;9.404;2023-11-19T06:54:41;92844.91;;;9.16;86.23
65376;BME280;51976;47.332;9.404;2023-11-19T06:57:07;92851.38;;;9.15;86.97
65376;BME280;51976;47.332;9.404;2023-11-19T06:59:34;92852.16;;;9.16;86.87
65376;BME280;51976;47.332;9.404;2023-11-19T07:01:59;92853.78;;;9.17;87.00
65376;BME280;51976;47.332;9.404;2023-11-19T07:04:25;92844.63;;;9.13;86.68
65376;BME280;51976;47.332;9.404;2023-11-19T07:06:50;92858.09;;;9.18;87.46
65376;BME280;51976;47.332;9.404;2023-11-19T07:09:17;92851.38;;;9.10;87.46
65376;BME280;51976;47.332;9.404;2023-11-19T07:11:43;92852.44;;;9.09;87.70
65376;BME280;51976;47.332;9.404;2023-11-19T07:14:11;92860.50;;;9.14;87.82
65376;BME280;51976;47.332;9.404;2023-11-19T07:16:37;92868.59;;;9.09;88.01
65376;BME280;51976;47.332;9.404;2023-11-19T07:19:04;92864.00;;;9.05;88.41
65376;BME280;51976;47.332;9.404;2023-11-19T07:21:30;92865.88;;;9.09;88.70
65376;BME280;51976;47.332;9.404;2023-11-19T07:23:56;92857.81;;;9.09;89.10
65376;BME280;51976;47.332;9.404;2023-11-19T07:26:22;92864.81;;;9.10;89.10
65376;BME280;51976;47.332;9.404;2023-11-19T07:28:48;92858.38;;;9.06;89.24
65376;BME280;51976;47.332;9.404;2023-11-19T07:31:14;92860.50;;;9.09;89.43
65376;BME280;51976;47.332;9.404;2023-11-19T07:33:39;92863.72;;;9.16;88.93
65376;BME280;51976;47.332;9.404;2023-11-19T07:36:08;92871.78;;;9.22;88.81
65376;BME280;51976;47.332;9.404;2023-11-19T07:38:33;92870.97;;;9.26;88.87
65376;BME280;51976;47.332;9.404;2023-11-19T07:40:59;92870.19;;;9.26;89.64
65376;BME280;51976;47.332;9.404;2023-11-19T07:43:24;92867.47;;;9.26;90.47
65376;BME280;51976;47.332;9.404;2023-11-19T07:45:49;92867.47;;;9.26;91.40
65376;BME280;51976;47.332;9.404;2023-11-19T07:48:15;92869.63;;;9.29;91.93
65376;BME280;51976;47.332;9.404;2023-11-19T07:50:40;92872.31;;;9.29;92.47
65376;BME280;51976;47.332;9.404;2023-11-19T07:53:07;92866.69;;;9.25;93.41
65376;BME280;51976;47.332;9.404;2023-11-19T07:55:33;92866.16;;;9.18;93.74
65376;BME280;51976;47.332;9.404;2023-11-19T07:57:58;92866.94;;;9.24;93.90
65376;BME280;51976;47.332;9.404;2023-11-19T08:00:24;92863.72;;;9.27;94.10
65376;BME280;51976;47.332;9.404;2023-11-19T08:02:49;92872.59;;;9.27;94.33
65376;BME280;51976;47.332;9.404;2023-11-19T08:05:14;92871.25;;;9.25;94.25
65376;BME280;51976;47.332;9.404;2023-11-19T08:07:40;92866.94;;;9.29;94.36
65376;BME280;51976;47.332;9.404;2023-11-19T08:10:07;92861.56;;;9.29;94.22
65376;BME280;51976;47.332;9.404;2023-11-19T08:12:35;92868.50;;;9.35;94.13
65376;BME280;51976;47.332;9.404;2023-11-19T08:15:02;92876.31;;;9.41;93.68
65376;BME280;51976;47.332;9.404;2023-11-19T08:17:27;92871.72;;;9.47;93.50
65376;BME280;51976;47.332;9.404;2023-11-19T08:19:53;92874.94;;;9.49;93.25
65376;BME280;51976;47.332;9.404;2023-11-19T08:22:18;92871.97;;;9.50;93.42
65376;BME280;51976;47.332;9.404;2023-11-19T08:24:43;92876.00;;;9.53;93.56
65376;BME280;51976;47.332;9.404;2023-11-19T08:27:09;92874.41;;;9.52;93.66
65376;BME280;51976;47.332;9.404;2023-11-19T08:29:34;92873.31;;;9.53;93.62
65376;BME280;51976;47.332;9.404;2023-11-19T08:32:01;92878.16;;;9.56;93.82
65376;BME280;51976;47.332;9.404;2023-11-19T08:34:28;92886.19;;;9.61;93.28
65376;BME280;51976;47.332;9.404;2023-11-19T08:36:53;92879.44;;;9.64;92.58
65376;BME280;51976;47.332;9.404;2023-11-19T08:39:19;92883.47;;;9.71;92.09
65376;BME280;51976;47.332;9.404;2023-11-19T08:41:46;92887.75;;;9.72;92.28
65376;BME280;51976;47.332;9.404;2023-11-19T08:44:12;92888.03;;;9.71;92.83
65376;BME280;51976;47.332;9.404;2023-11-19T08:46:38;92899.34;;;9.73;92.86
65376;BME280;51976;47.332;9.404;2023-11-19T08:49:05;92897.44;;;9.73;93.16
65376;BME280;51976;47.332;9.404;2023-11-19T08:51:30;92902.84;;;9.73;93.15
65376;BME280;51976;47.332;9.404;2023-11-19T08:53:56;92892.06;;;9.73;93.15
65376;BME280;51976;47.332;9.404;2023-11-19T08:56:22;92900.66;;;9.80;92.66
65376;BME280;51976;47.332;9.404;2023-11-19T08:58:48;92901.16;;;9.88;92.23
65376;BME280;51976;47.332;9.404;2023-11-19T09:01:14;92889.03;;;9.90;91.86
65376;BME280;51976;47.332;9.404;2023-11-19T09:03:39;92898.16;;;9.94;91.80
65376;BME280;51976;47.332;9.404;2023-11-19T09:06:05;92891.97;;;9.94;91.61
65376;BME280;51976;47.332;9.404;2023-11-19T09:08:31;92891.94;;;9.99;91.18
65376;BME280;51976;47.332;9.404;2023-11-19T09:10:56;92901.38;;;10.01;91.10
65376;BME280;51976;47.332;9.404;2023-11-19T09:13:22;92894.09;;;10.02;90.67
65376;BME280;51976;47.332;9.404;2023-11-19T09:15:48;92880.63;;;10.02;90.29
65376;BME280;51976;47.332;9.404;2023-11-19T09:18:13;92897.28;;;10.09;90.23
65376;BME280;51976;47.332;9.404;2023-11-19T09:20:38;92901.59;;;10.10;90.58
65376;BME280;51976;47.332;9.404;2023-11-19T09:23:05;92899.72;;;10.10;90.91
65376;BME280;51976;47.332;9.404;2023-11-19T09:25:31;92899.44;;;10.12;90.95
65376;BME280;51976;47.332;9.404;2023-11-19T09:27:56;92904.50;;;10.13;90.99
65376;BME280;51976;47.332;9.404;2023-11-19T09:30:22;92908.53;;;10.16;91.09
65376;BME280;51976;47.332;9.404;2023-11-19T09:32:48;92903.44;;;10.20;90.80
65376;BME280;51976;47.332;9.404;2023-11-19T09:35:13;92903.16;;;10.21;90.65
65376;BME280;51976;47.332;9.404;2023-11-19T09:37:40;92898.31;;;10.23;90.70
65376;BME280;51976;47.332;9.404;2023-11-19T09:40:06;92901.53;;;10.25;90.94
65376;BME280;51976;47.332;9.404;2023-11-19T09:42:42;92888.06;;;10.25;90.95
65376;BME280;51976;47.332;9.404;2023-11-19T09:45:13;92897.19;;;10.34;90.45
65376;BME280;51976;47.332;9.404;2023-11-19T09:47:40;92897.72;;;10.36;90.43
65376;BME280;51976;47.332;9.404;2023-11-19T09:50:05;92901.22;;;10.37;90.28
65376;BME280;51976;47.332;9.404;2023-11-19T09:52:31;92902.00;;;10.37;89.65
65376;BME280;51976;47.332;9.404;2023-11-19T09:54:56;92897.16;;;10.39;89.34
65376;BME280;51976;47.332;9.404;2023-11-19T09:57:22;92902.47;;;10.44;89.47
65376;BME280;51976;47.332;9.404;2023-11-19T09:59:48;92896.00;;;10.45;88.91
65376;BME280;51976;47.332;9.404;2023-11-19T10:02:14;92900.84;;;10.48;88.72
65376;BME280;51976;47.332;9.404;2023-11-19T10:04:41;92895.94;;;10.56;88.61
65376;BME280;51976;47.332;9.404;2023-11-19T10:07:08;92892.44;;;10.55;88.55
65376;BME280;51976;47.332;9.404;2023-11-19T10:09:34;92884.63;;;10.54;88.55
65376;BME280;51976;47.332;9.404;2023-11-19T10:11:59;92891.09;;;10.58;88.23
65376;BME280;51976;47.332;9.404;2023-11-19T10:14:25;92882.44;;;10.61;88.73
65376;BME280;51976;47.332;9.404;2023-11-19T10:16:51;92878.66;;;10.62;89.00
65376;BME280;51976;47.332;9.404;2023-11-19T10:19:19;92875.13;;;10.66;88.57
65376;BME280;51976;47.332;9.404;2023-11-19T10:21:45;92884.75;;;10.72;88.41
65376;BME280;51976;47.332;9.404;2023-11-19T10:24:11;92879.63;;;10.76;88.14
65376;BME280;51976;47.332;9.404;2023-11-19T10:26:36;92872.09;;;10.73;87.63
65376;BME280;51976;47.332;9.404;2023-11-19T10:29:02;92870.44;;;10.77;87.97
65376;BME280;51976;47.332;9.404;2023-11-19T10:31:29;92867.22;;;10.75;87.77
65376;BME280;51976;47.332;9.404;2023-11-19T10:33:54;92854.25;;;10.77;87.76
65376;BME280;51976;47.332;9.404;2023-11-19T10:36:20;92858.84;;;10.76;87.43
65376;BME280;51976;47.332;9.404;2023-11-19T10:38:52;92860.78;;;10.71;87.49
65376;BME280;51976;47.332;9.404;2023-11-19T10:41:30;92854.53;;;10.75;87.17
65376;BME280;51976;47.332;9.404;2023-11-19T10:43:57;92853.69;;;10.80;87.17
65376;BME280;51976;47.332;9.404;2023-11-19T10:46:22;92857.44;;;10.84;87.28
65376;BME280;51976;47.332;9.404;2023-11-19T10:48:49;92845.53;;;10.90;86.98
65376;BME280;51976;47.332;9.404;2023-11-19T10:51:19;92841.22;;;10.89;86.98
65376;BME280;51976;47.332;9.404;2023-11-19T10:53:49;92835.53;;;10.91;86.79
65376;BME280;51976;47.332;9.404;2023-11-19T10:56:16;92830.34;;;10.94;86.89
65376;BME280;51976;47.332;9.404;2023-11-19T10:58:44;92833.66;;;10.91;86.88
65376;BME280;51976;47.332;9.404;2023-11-19T11:01:18;92839.03;;;10.91;87.42
65376;BME280;51976;47.332;9.404;2023-11-19T11:03:45;92828.53;;;10.90;87.40
65376;BME280;51976;47.332;9.404;2023-11-19T11:06:12;92830.19;;;10.85;87.96
65376;BME280;51976;47.332;9.404;2023-11-19T11:08:39;92835.88;;;10.84;88.64
65376;BME280;51976;47.332;9.404;2023-11-19T11:11:05;92822.94;;;10.81;88.99
65376;BME280;51976;47.332;9.404;2023-11-19T11:13:31;92817.84;;;10.79;89.04
65376;BME280;51976;47.332;9.404;2023-11-19T11:15:57;92817.31;;;10.77;88.91
65376;BME280;51976;47.332;9.404;2023-11-19T11:18:23;92819.72;;;10.79;88.60
65376;BME280;51976;47.332;9.404;2023-11-19T11:20:52;92820.81;;;10.78;88.59
65376;BME280;51976;47.332;9.404;2023-11-19T11:24:01;92810.84;;;10.78;88.02
65376;BME280;51976;47.332;9.404;2023-11-19T11:30:01;92812.59;;;10.93;86.66
65376;BME280;51976;47.332;9.404;2023-11-19T11:32:43;92820.09;;;10.96;86.54
65376;BME280;51976;47.332;9.404;2023-11-19T11:35:24;92823.59;;;10.97;86.77
65376;BME280;51976;47.332;9.404;2023-11-19T11:37:59;92816.31;;;10.97;86.75
65376;BME280;51976;47.332;9.404;2023-11-19T11:40:25;92824.34;;;11.02;86.04
65376;BME280;51976;47.332;9.404;2023-11-19T11:42:52;92818.44;;;11.00;86.58
65376;BME280;51976;47.332;9.404;2023-11-19T11:45:18;92822.75;;;11.01;86.69
65376;BME280;51976;47.332;9.404;2023-11-19T11:48:09;92823.31;;;10.98;86.65
65376;BME280;51976;47.332;9.404;2023-11-19T11:50:47;92819.56;;;10.94;87.35
65376;BME280;51976;47.332;9.404;2023-11-19T11:53:15;92811.78;;;10.93;87.68
65376;BME280;51976;47.332;9.404;2023-11-19T11:55:53;92808.00;;;10.94;87.31
65376;BME280;51976;47.332;9.404;2023-11-19T11:58:29;92812.59;;;10.93;87.62
65376;BME280;51976;47.332;9.404;2023-11-19T12:00:59;92789.56;;;11.01;87.52
65376;BME280;51976;47.332;9.404;2023-11-19T12:03:28;92798.19;;;11.03;87.38
65376;BME280;51976;47.332;9.404;2023-11-19T12:05:54;92796.84;;;11.00;87.18
65376;BME280;51976;47.332;9.404;2023-11-19T12:08:25;92789.53;;;11.06;87.09
65376;BME280;51976;47.332;9.404;2023-11-19T12:10:51;92797.84;;;11.09;87.21
65376;BME280;51976;47.332;9.404;2023-11-19T12:13:18;92796.72;;;11.15;87.37
65376;BME280;51976;47.332;9.404;2023-11-19T12:16:07;92784.59;;;11.13;87.10
65376;BME280;51976;47.332;9.404;2023-11-19T12:18:33;92794.25;;;11.19;86.86
65376;BME280;51976;47.332;9.404;2023-11-19T12:21:00;92800.94;;;11.22;86.68
65376;BME280;51976;47.332;9.404;2023-11-19T12:23:31;92798.19;;;11.27;86.14
65376;BME280;51976;47.332;9.404;2023-11-19T12:25:58;92793.31;;;11.29;85.64
65376;BME280;51976;47.332;9.404;2023-11-19T12:28:24;92793.84;;;11.31;85.59
65376;BME280;51976;47.332;9.404;2023-11-19T12:30:52;92791.41;;;11.29;84.92
65376;BME280;51976;47.332;9.404;2023-11-19T12:33:19;92789.75;;;11.33;84.89
65376;BME280;51976;47.332;9.404;2023-11-19T12:35:46;92782.22;;;11.30;84.68
65376;BME280;51976;47.332;9.404;2023-11-19T12:38:23;92784.88;;;11.35;84.57
65376;BME280;51976;47.332;9.404;2023-11-19T12:41:07;92789.41;;;11.40;83.86
65376;BME280;51976;47.332;9.404;2023-11-19T12:43:33;92782.34;;;11.44;83.67
65376;BME280;51976;47.332;9.404;2023-11-19T12:46:16;92790.88;;;11.51;83.57
65376;BME280;51976;47.332;9.404;2023-11-19T12:48:41;92779.78;;;11.52;83.16
65376;BME280;51976;47.332;9.404;2023-11-19T12:51:07;92785.13;;;11.58;82.21
65376;BME280;51976;47.332;9.404;2023-11-19T12:53:50;92783.53;;;11.57;82.46
65376;BME280;51976;47.332;9.404;2023-11-19T12:56:16;92791.28;;;11.63;82.39
65376;BME280;51976;47.332;9.404;2023-11-19T12:58:42;92785.59;;;11.65;82.29
65376;BME280;51976;47.332;9.404;2023-11-19T13:01:08;92786.91;;;11.67;82.25
65376;BME280;51976;47.332;9.404;2023-11-19T13:03:37;92776.06;;;11.72;82.31
65376;BME280;51976;47.332;9.404;2023-11-19T13:06:08;92784.97;;;11.73;81.66